LSZR/ACH METAR and TAF weather

Enter ICAO airport designator
Station Type Date Time Source
LSZR METAR 2019/02/21 11:20 UTC NOAA

LSZR 211120Z 29005KT CAVOK 07/03 Q1030 NOSIG RMK G


Station Type Date Time Source
LSZR Decoded METAR 2019/02/21 11:20 UTC NOAA

Saint Gallen-Altenrhein, Switzerland (LSZR) 47-29-06N 009-33-43E
Feb 21, 2019 - 06:20 AM EST / 2019.02.21 1120 UTC
Wind: from the WNW (290 degrees) at 6 MPH (5 KT):0
Visibility: greater than 7 mile(s):0
Temperature: 44 F (7 C)
Dew Point: 37 F (3 C)
Relative Humidity: 75%
Pressure (altimeter): 30.42 in. Hg (1030 hPa)
ob: LSZR 211120Z 29005KT CAVOK 07/03 Q1030 NOSIG RMK G
cycle: 11

Station Type Date Time Source
LSZR TAF 2014/12/22 20:03 UTC NOAA

TAF
AMD LSZR 222054Z 2220/2224 CNL


Example: see airport list